Time;durP1;ratioP1;P1;durP2;ratioP2;P2;SDS_P1;SDS_P2;PMS_P1;PMS_P2;Temp;Humidity;BMP_temperature;BMP_pressure;BME280_temperature;BME280_humidity;BME280_pressure;Samples;Min_cycle;Max_cycle;Signal;HPM_P1;HPM_P2
2022/12/01 00:00:40;;;;;;;14.98;9.45;;;25.90;95.40;;;;;;1798993;79;21139;-84
2022/12/01 00:03:11;;;;;;;13.28;9.88;;;26.00;95.40;;;;;;1779472;78;21109;-84
2022/12/01 00:05:42;;;;;;;16.05;9.85;;;25.90;95.50;;;;;;1783631;79;21203;-83
2022/12/01 00:08:12;;;;;;;15.45;10.15;;;25.90;95.60;;;;;;1779188;80;21148;-83
2022/12/01 00:10:43;;;;;;;14.63;9.90;;;25.90;95.70;;;;;;1777750;80;21128;-81
2022/12/01 00:13:14;;;;;;;16.65;9.68;;;25.90;95.80;;;;;;1776867;79;21133;-83
2022/12/01 00:15:45;;;;;;;15.53;9.43;;;25.90;95.80;;;;;;1795594;79;21193;-82
2022/12/01 00:18:19;;;;;;;11.50;9.03;;;25.90;95.70;;;;;;1764406;79;21644;-71
2022/12/01 00:20:54;;;;;;;17.62;8.45;;;26.00;95.60;;;;;;1785512;79;21616;-71
2022/12/01 00:23:25;;;;;;;13.45;8.83;;;26.00;95.70;;;;;;1784468;79;21131;-73
2022/12/01 00:26:05;;;;;;;17.35;9.18;;;26.00;95.80;;;;;;1781479;79;21710;-71
2022/12/01 00:28:36;;;;;;;13.40;7.95;;;26.00;95.80;;;;;;1788109;79;21269;-72
2022/12/01 00:31:11;;;;;;;14.85;7.97;;;26.00;95.70;;;;;;1783542;79;21129;-72
2022/12/01 00:33:42;;;;;;;13.93;7.80;;;26.00;95.60;;;;;;1791029;79;21710;-72
2022/12/01 00:36:15;;;;;;;17.27;8.63;;;25.90;95.60;;;;;;1790662;79;21129;-71
2022/12/01 00:38:46;;;;;;;11.25;8.68;;;25.90;95.60;;;;;;1759858;80;21198;-73
2022/12/01 00:41:21;;;;;;;14.83;8.90;;;26.00;95.70;;;;;;1727545;80;21171;-73
2022/12/01 00:43:53;;;;;;;12.55;8.65;;;26.00;95.50;;;;;;1756178;80;21204;-71
2022/12/01 00:46:24;;;;;;;13.98;9.18;;;26.20;95.30;;;;;;1780537;78;21197;-73
2022/12/01 00:48:56;;;;;;;33.30;10.82;;;26.20;95.20;;;;;;1754171;81;21238;-72
2022/12/01 00:51:27;;;;;;;16.57;8.98;;;26.20;95.20;;;;;;1789353;79;21132;-73
2022/12/01 00:53:58;;;;;;;13.32;9.00;;;26.30;95.00;;;;;;1797239;79;21204;-72
2022/12/01 00:56:30;;;;;;;15.10;7.85;;;26.30;94.70;;;;;;1780036;79;21178;-71
2022/12/01 01:01:52;;;;;;;12.00;8.43;;;26.50;94.50;;;;;;1778831;79;21221;-72
2022/12/01 01:04:23;;;;;;;12.35;7.05;;;26.60;94.40;;;;;;1750662;80;21300;-72
2022/12/01 01:06:55;;;;;;;12.00;7.53;;;26.70;94.40;;;;;;1794819;78;21196;-71
2022/12/01 01:09:26;;;;;;;10.85;7.60;;;26.80;94.30;;;;;;1778141;79;21175;-71
2022/12/01 01:11:58;;;;;;;9.28;7.53;;;26.90;94.00;;;;;;1774688;79;21348;-73
2022/12/01 01:14:28;;;;;;;11.18;5.90;;;27.00;93.70;;;;;;1807396;77;21169;-71
2022/12/01 01:17:02;;;;;;;6.03;4.95;;;27.10;93.30;;;;;;1811055;77;21663;-73
2022/12/01 01:19:35;;;;;;;8.23;5.70;;;27.10;93.00;;;;;;1812269;77;21264;-73
2022/12/01 01:22:07;;;;;;;9.13;4.72;;;27.10;93.00;;;;;;1784715;80;21242;-74
2022/12/01 01:24:39;;;;;;;7.08;5.12;;;27.20;92.70;;;;;;1827645;78;21161;-72
2022/12/01 01:27:14;;;;;;;6.53;5.00;;;27.20;92.80;;;;;;1807900;77;21637;-72
2022/12/01 01:29:45;;;;;;;9.80;5.65;;;27.30;92.60;;;;;;1803315;78;21613;-73
2022/12/01 01:32:16;;;;;;;7.08;4.78;;;27.30;92.60;;;;;;1827825;77;21740;-72
2022/12/01 01:34:47;;;;;;;5.67;4.53;;;27.40;92.30;;;;;;1793163;79;21264;-71
2022/12/01 01:37:18;;;;;;;6.47;4.65;;;27.40;92.80;;;;;;1757005;81;21722;-73
2022/12/01 01:39:49;;;;;;;8.38;5.10;;;27.40;92.20;;;;;;1754432;81;21548;-72
2022/12/01 01:42:21;;;;;;;9.33;4.22;;;27.50;92.30;;;;;;1780579;78;21149;-73
2022/12/01 01:44:54;;;;;;;5.30;4.42;;;27.50;92.20;;;;;;1819514;77;21147;-74
2022/12/01 01:47:37;;;;;;;8.08;4.62;;;27.60;92.10;;;;;;1819682;79;21085;-73
2022/12/01 01:50:11;;;;;;;8.43;4.60;;;27.60;92.00;;;;;;1820231;78;21607;-72
2022/12/01 01:52:44;;;;;;;7.97;5.47;;;27.70;92.10;;;;;;1777489;78;21116;-72
2022/12/01 01:55:16;;;;;;;7.03;4.70;;;27.70;92.10;;;;;;1807540;77;21194;-72
2022/12/01 01:57:47;;;;;;;8.00;4.80;;;27.80;92.00;;;;;;1777434;78;21618;-72
2022/12/01 02:00:20;;;;;;;8.45;5.40;;;27.80;92.00;;;;;;1762114;80;21178;-73
2022/12/01 02:02:54;;;;;;;6.22;4.30;;;27.80;92.00;;;;;;1811612;78;21234;-73
2022/12/01 02:05:27;;;;;;;8.48;4.67;;;27.80;92.00;;;;;;1812470;78;21238;-73
2022/12/01 02:08:00;;;;;;;12.50;5.28;;;27.80;91.90;;;;;;1810777;78;21907;-74
2022/12/01 02:10:52;;;;;;;8.30;4.70;;;27.90;91.90;;;;;;1809508;77;21101;-73
2022/12/01 02:13:42;;;;;;;8.35;4.12;;;27.90;91.90;;;;;;1811075;77;21195;-73
2022/12/01 02:16:18;;;;;;;9.00;5.15;;;28.00;91.70;;;;;;1782542;78;21195;-73
2022/12/01 02:19:19;;;;;;;6.90;4.37;;;28.10;91.70;;;;;;1742697;80;21764;-73
2022/12/01 02:22:11;;;;;;;7.03;5.40;;;28.10;91.60;;;;;;1757033;80;21183;-74
2022/12/01 02:25:09;;;;;;;6.35;4.33;;;28.10;91.50;;;;;;1750427;81;21240;-74
2022/12/01 02:27:58;;;;;;;7.83;4.50;;;28.20;91.70;;;;;;1765247;80;21200;-73
2022/12/01 02:30:50;;;;;;;7.70;4.08;;;28.20;91.20;;;;;;1758797;80;21219;-73
2022/12/01 02:33:30;;;;;;;7.12;4.28;;;28.20;91.20;;;;;;1755945;79;21183;-73
2022/12/01 02:36:21;;;;;;;5.60;4.30;;;28.30;91.30;;;;;;1727832;82;21190;-71
2022/12/01 02:38:54;;;;;;;6.50;4.42;;;28.30;91.30;;;;;;1720782;82;21216;-73
2022/12/01 02:41:34;;;;;;;5.47;4.42;;;28.40;91.10;;;;;;1756163;79;21189;-73
2022/12/01 02:44:11;;;;;;;7.62;4.42;;;28.40;90.90;;;;;;1752918;81;21170;-74
2022/12/01 02:46:50;;;;;;;8.45;4.62;;;28.50;90.80;;;;;;1749097;80;21181;-73
2022/12/01 02:49:29;;;;;;;6.40;4.08;;;28.60;90.90;;;;;;1719125;82;21697;-77
2022/12/01 02:52:01;;;;;;;5.28;4.10;;;28.60;90.60;;;;;;1761230;81;21196;-75
2022/12/01 02:54:33;;;;;;;6.37;3.83;;;28.60;90.70;;;;;;1755336;81;21756;-75
2022/12/01 02:57:04;;;;;;;6.55;3.77;;;28.70;90.60;;;;;;1756678;81;21178;-76
2022/12/01 02:59:34;;;;;;;6.47;4.08;;;28.70;90.10;;;;;;1757038;79;21176;-75
2022/12/01 03:02:16;;;;;;;9.33;4.42;;;28.80;90.20;;;;;;1761545;80;21161;-76
2022/12/01 03:04:59;;;;;;;7.03;4.45;;;28.80;90.40;;;;;;1755453;80;21301;-75
2022/12/01 03:07:33;;;;;;;6.08;4.55;;;28.80;90.40;;;;;;1758750;80;21283;-75
2022/12/01 03:10:23;;;;;;;7.35;4.10;;;28.90;90.50;;;;;;1753884;80;21540;-75
2022/12/01 03:13:11;;;;;;;6.42;3.87;;;28.90;90.30;;;;;;1739080;81;21120;-76
2022/12/01 03:15:57;;;;;;;5.90;4.05;;;29.00;90.20;;;;;;1756475;81;21105;-75
2022/12/01 03:18:37;;;;;;;6.63;3.83;;;29.00;90.20;;;;;;1748798;80;21656;-75
2022/12/01 03:21:28;;;;;;;9.10;3.87;;;29.10;90.30;;;;;;1754095;80;21239;-75
2022/12/01 03:24:08;;;;;;;8.00;5.60;;;29.10;90.30;;;;;;1753783;81;21123;-75
2022/12/01 03:26:39;;;;;;;6.58;4.37;;;29.20;90.20;;;;;;1753767;81;21209;-75
2022/12/01 03:29:12;;;;;;;6.97;3.25;;;29.30;89.20;;;;;;1766905;79;21216;-75
2022/12/01 03:31:54;;;;;;;5.70;3.58;;;29.40;88.30;;;;;;1749348;81;21139;-75
2022/12/01 03:34:31;;;;;;;8.45;3.52;;;29.40;87.10;;;;;;1756111;82;21179;-75
2022/12/01 03:37:17;;;;;;;5.92;3.80;;;29.50;86.70;;;;;;1767559;80;21125;-76
2022/12/01 03:39:52;;;;;;;6.30;3.50;;;29.70;86.90;;;;;;1760380;80;21640;-75
2022/12/01 03:42:27;;;;;;;5.20;3.30;;;29.80;86.70;;;;;;1751719;79;21562;-75
2022/12/01 03:45:01;;;;;;;5.03;3.27;;;29.90;85.80;;;;;;1750537;81;21231;-74
2022/12/01 03:47:34;;;;;;;5.53;3.60;;;30.10;86.10;;;;;;1755891;81;21119;-74
2022/12/01 03:50:09;;;;;;;4.62;3.05;;;30.10;86.20;;;;;;1744500;80;21250;-74
2022/12/01 03:52:51;;;;;;;7.20;4.10;;;30.20;85.10;;;;;;1756214;82;21178;-75
2022/12/01 03:55:24;;;;;;;6.42;3.65;;;30.30;83.80;;;;;;1757260;81;21220;-75
2022/12/01 03:57:58;;;;;;;6.62;4.00;;;30.40;84.10;;;;;;1770270;80;21187;-75
2022/12/01 04:00:30;;;;;;;4.92;3.80;;;30.50;83.80;;;;;;1753469;80;21208;-76
2022/12/01 04:03:02;;;;;;;7.03;3.50;;;30.60;83.50;;;;;;1749846;81;21266;-75
2022/12/01 04:05:35;;;;;;;5.45;3.75;;;30.50;84.00;;;;;;1747381;80;21218;-75
2022/12/01 04:08:06;;;;;;;6.65;3.60;;;30.60;83.80;;;;;;1758918;80;21592;-75
2022/12/01 04:10:40;;;;;;;4.80;3.72;;;30.60;84.10;;;;;;1750413;80;21591;-75
2022/12/01 04:13:21;;;;;;;5.58;4.10;;;30.70;84.10;;;;;;1762033;81;21229;-76
2022/12/01 04:15:44;;;;;;;6.12;3.77;;;30.80;83.00;;;;;;1757465;80;21158;-74
2022/12/01 04:18:15;;;;;;;6.47;4.25;;;30.80;83.00;;;;;;1765890;80;21224;-75
2022/12/01 04:20:52;;;;;;;9.05;4.55;;;30.80;82.50;;;;;;1755054;81;21245;-78
2022/12/01 04:26:14;;;;;;;6.92;4.00;;;30.80;81.60;;;;;;1762427;80;21199;-75
2022/12/01 04:28:45;;;;;;;6.28;4.17;;;30.80;82.00;;;;;;1759174;79;21194;-74
2022/12/01 04:31:16;;;;;;;5.05;3.70;;;30.80;82.00;;;;;;1756049;81;21171;-77
2022/12/01 04:33:47;;;;;;;5.95;4.05;;;30.70;82.20;;;;;;1760759;81;21155;-75
2022/12/01 04:36:18;;;;;;;5.45;4.22;;;30.70;82.70;;;;;;1747981;80;21188;-75
2022/12/01 04:38:49;;;;;;;6.37;4.10;;;30.80;81.90;;;;;;1759524;81;21246;-75
2022/12/01 04:41:19;;;;;;;8.10;4.47;;;31.00;82.30;;;;;;1750022;79;21226;-74
2022/12/01 04:43:52;;;;;;;6.42;4.25;;;31.20;81.90;;;;;;1764996;80;21188;-75
2022/12/01 04:46:24;;;;;;;7.25;4.60;;;31.40;80.70;;;;;;1759650;80;21627;-75
2022/12/01 04:48:55;;;;;;;6.08;4.45;;;31.60;80.30;;;;;;1759388;81;21180;-75
2022/12/01 04:51:26;;;;;;;6.42;4.15;;;31.70;79.70;;;;;;1759126;80;21210;-74
2022/12/01 04:53:57;;;;;;;9.48;4.78;;;31.80;78.20;;;;;;1757916;80;21194;-75
2022/12/01 04:56:28;;;;;;;5.45;4.03;;;32.00;78.80;;;;;;1756951;80;21195;-74
2022/12/01 04:58:59;;;;;;;5.45;4.10;;;32.20;78.00;;;;;;1755186;81;21199;-75
2022/12/01 05:01:33;;;;;;;6.72;4.10;;;32.20;77.80;;;;;;1753348;80;21183;-74
2022/12/01 05:04:07;;;;;;;9.03;3.75;;;32.20;77.70;;;;;;1756602;80;21166;-74
2022/12/01 05:06:39;;;;;;;7.95;3.90;;;32.10;78.00;;;;;;1758276;81;21685;-76
2022/12/01 05:09:12;;;;;;;6.85;4.10;;;32.00;78.60;;;;;;1766008;80;21285;-75
2022/12/01 05:11:44;;;;;;;6.75;3.90;;;31.80;78.70;;;;;;1742005;80;21142;-73
2022/12/01 05:14:15;;;;;;;7.50;3.90;;;31.60;79.10;;;;;;1765000;80;21124;-73
2022/12/01 05:16:48;;;;;;;5.15;3.87;;;31.50;79.00;;;;;;1766216;80;21121;-72
2022/12/01 05:22:07;;;;;;;5.95;3.90;;;31.40;79.80;;;;;;1747282;80;21593;-74
2022/12/01 05:24:38;;;;;;;5.25;3.80;;;31.50;79.20;;;;;;1762867;81;21199;-73
2022/12/01 05:27:09;;;;;;;6.53;4.35;;;31.60;79.20;;;;;;1758874;79;21169;-73
2022/12/01 05:29:40;;;;;;;8.28;4.08;;;31.70;79.70;;;;;;1757877;80;21180;-74
2022/12/01 05:32:12;;;;;;;5.47;4.10;;;31.80;79.40;;;;;;1709069;82;21264;-73
2022/12/01 05:34:42;;;;;;;7.97;5.00;;;31.80;78.10;;;;;;1756762;80;21188;-71
2022/12/01 05:37:13;;;;;;;7.03;4.30;;;31.80;78.40;;;;;;1767248;79;21244;-71
2022/12/01 05:39:45;;;;;;;6.00;4.53;;;31.80;78.80;;;;;;1726580;82;21184;-71
2022/12/01 05:42:16;;;;;;;7.78;4.47;;;31.80;78.80;;;;;;1758701;80;21234;-73
2022/12/01 05:44:47;;;;;;;6.12;3.98;;;31.90;78.60;;;;;;1768919;79;21186;-73
2022/12/01 05:47:20;;;;;;;7.05;3.90;;;32.00;78.00;;;;;;1743805;80;21166;-73
2022/12/01 05:49:51;;;;;;;6.45;4.28;;;32.10;77.40;;;;;;1766545;79;21200;-74
2022/12/01 05:52:22;;;;;;;4.80;3.77;;;32.20;77.20;;;;;;1757954;81;21826;-74
2022/12/01 05:54:53;;;;;;;6.60;4.10;;;32.30;76.90;;;;;;1766766;81;21296;-74
2022/12/01 05:57:23;;;;;;;6.42;3.95;;;32.40;76.00;;;;;;1755301;81;21178;-74
2022/12/01 05:59:55;;;;;;;4.95;3.80;;;32.20;76.30;;;;;;1760141;79;21756;-73
2022/12/01 06:02:27;;;;;;;5.78;4.45;;;32.00;76.50;;;;;;1747371;80;21222;-75
2022/12/01 06:04:58;;;;;;;5.45;3.72;;;31.90;77.20;;;;;;1758762;81;21214;-74
2022/12/01 06:07:29;;;;;;;9.28;3.72;;;31.70;77.40;;;;;;1743979;80;21213;-74
2022/12/01 06:10:00;;;;;;;7.55;4.58;;;31.60;78.20;;;;;;1753094;80;21196;-72
2022/12/01 06:12:31;;;;;;;5.60;3.33;;;31.60;78.50;;;;;;1763622;80;21131;-74
2022/12/01 06:15:05;;;;;;;5.10;3.83;;;31.60;78.70;;;;;;1764279;81;21198;-75
2022/12/01 06:17:36;;;;;;;6.95;3.95;;;31.70;78.80;;;;;;1754218;81;21665;-74
2022/12/01 06:20:09;;;;;;;8.25;4.65;;;31.80;78.30;;;;;;1755051;81;21570;-74
2022/12/01 06:22:40;;;;;;;8.70;4.65;;;31.80;78.10;;;;;;1758874;80;21219;-73
2022/12/01 06:25:11;;;;;;;11.85;4.03;;;31.70;78.00;;;;;;1764275;79;21119;-74
2022/12/01 06:27:41;;;;;;;10.70;3.80;;;31.60;78.60;;;;;;1747459;81;21098;-74
2022/12/01 06:30:13;;;;;;;4.58;3.47;;;31.60;78.80;;;;;;1749860;81;21658;-73
2022/12/01 06:32:43;;;;;;;6.25;3.35;;;31.60;78.90;;;;;;1746667;81;21163;-73
2022/12/01 06:35:14;;;;;;;6.72;3.58;;;31.60;78.90;;;;;;1741287;81;21237;-73
2022/12/01 06:37:45;;;;;;;8.50;4.10;;;31.70;78.80;;;;;;1760990;81;21258;-72
2022/12/01 06:40:16;;;;;;;7.80;3.50;;;31.70;78.00;;;;;;1766562;79;21273;-73
2022/12/01 06:42:49;;;;;;;5.00;3.75;;;31.60;78.20;;;;;;1747580;80;21189;-72
2022/12/01 06:45:20;;;;;;;6.17;3.55;;;31.60;78.70;;;;;;1761802;79;21178;-73
2022/12/01 06:47:55;;;;;;;4.67;3.47;;;31.50;78.40;;;;;;1762821;80;21142;-72
2022/12/01 06:50:26;;;;;;;6.45;3.62;;;31.50;78.70;;;;;;1753484;80;21172;-72
2022/12/01 06:52:57;;;;;;;5.65;3.90;;;31.40;78.80;;;;;;1748377;81;21190;-72
2022/12/01 06:55:30;;;;;;;5.67;3.72;;;31.50;78.90;;;;;;1752408;80;21197;-73
2022/12/01 06:58:01;;;;;;;5.33;3.70;;;31.50;78.20;;;;;;1748884;79;22010;-73
2022/12/01 07:00:33;;;;;;;7.12;4.85;;;31.70;78.50;;;;;;1756352;79;21167;-73
2022/12/01 07:03:04;;;;;;;5.90;4.55;;;31.80;77.40;;;;;;1756723;80;21726;-72
2022/12/01 07:05:35;;;;;;;5.97;3.95;;;31.90;77.50;;;;;;1762101;81;21175;-73
2022/12/01 07:08:06;;;;;;;5.95;3.52;;;31.80;77.40;;;;;;1763910;80;21132;-73
2022/12/01 07:10:37;;;;;;;8.40;3.58;;;31.80;77.40;;;;;;1762244;80;21162;-73
2022/12/01 07:13:08;;;;;;;6.70;3.55;;;31.70;77.60;;;;;;1732621;81;21142;-72
2022/12/01 07:15:39;;;;;;;7.22;3.62;;;31.60;77.20;;;;;;1751512;81;21196;-73
2022/12/01 07:18:11;;;;;;;4.50;3.30;;;31.60;77.40;;;;;;1745173;81;21232;-72
2022/12/01 07:20:48;;;;;;;4.53;3.52;;;31.50;77.30;;;;;;1752639;81;21215;-72
2022/12/01 07:23:20;;;;;;;6.87;3.55;;;31.50;77.90;;;;;;1753182;81;21111;-73
2022/12/01 07:25:59;;;;;;;5.05;3.37;;;31.50;78.80;;;;;;1765108;81;21551;-72
2022/12/01 07:28:30;;;;;;;5.17;3.37;;;31.50;78.00;;;;;;1751046;81;21171;-72
2022/12/01 07:31:09;;;;;;;3.85;2.90;;;31.60;77.70;;;;;;1752588;81;21949;-71
2022/12/01 07:33:41;;;;;;;4.12;3.27;;;31.80;77.80;;;;;;1753368;80;21903;-71
2022/12/01 07:36:13;;;;;;;6.75;3.20;;;31.90;77.40;;;;;;1769614;80;21191;-71
2022/12/01 07:38:44;;;;;;;8.25;3.40;;;32.00;76.80;;;;;;1764028;81;21217;-72
2022/12/01 07:41:19;;;;;;;7.83;3.45;;;32.00;76.40;;;;;;1751532;81;21759;-71
2022/12/01 07:43:50;;;;;;;;;;;32.10;76.30;;;;;;1748350;81;21261;-71
2022/12/01 07:46:26;;;;;;;6.72;3.67;;;32.10;76.60;;;;;;1748074;79;20315;-70
2022/12/01 07:48:58;;;;;;;7.72;3.55;;;32.20;75.90;;;;;;1760003;80;21127;-72
2022/12/01 07:51:33;;;;;;;6.03;3.60;;;32.20;75.70;;;;;;1758589;81;21211;-72
2022/12/01 07:54:05;;;;;;;6.78;3.62;;;32.20;75.10;;;;;;1759834;79;21264;-71
2022/12/01 07:56:38;;;;;;;5.33;3.25;;;32.30;75.30;;;;;;1763865;79;21239;-72
2022/12/01 07:59:11;;;;;;;5.30;3.33;;;32.40;74.80;;;;;;1759311;80;21129;-73
2022/12/01 08:01:42;;;;;;;4.17;2.50;;;32.40;74.40;;;;;;1754051;81;21221;-73
2022/12/01 08:04:14;;;;;;;5.58;3.10;;;32.40;73.80;;;;;;1751025;81;21171;-72
2022/12/01 08:06:51;;;;;;;8.80;2.90;;;32.30;74.50;;;;;;1758558;81;21266;-71
2022/12/01 08:09:18;;;;;;;6.28;2.90;;;32.30;74.40;;;;;;1750661;80;21160;-72
2022/12/01 08:11:50;;;;;;;5.47;3.17;;;32.30;74.10;;;;;;1761278;81;21276;-70
2022/12/01 08:14:21;;;;;;;6.67;2.83;;;32.30;73.50;;;;;;1745410;80;21231;-75
2022/12/01 08:16:52;;;;;;;4.55;2.67;;;32.20;73.80;;;;;;1758490;80;21763;-72
2022/12/01 08:19:24;;;;;;;5.45;3.00;;;32.20;73.70;;;;;;1747675;81;21173;-75
2022/12/01 08:21:58;;;;;;;8.38;3.17;;;32.10;74.60;;;;;;1773631;79;21185;-72
2022/12/01 08:24:42;;;;;;;6.37;2.98;;;32.00;74.70;;;;;;1757456;80;21332;-74
2022/12/01 08:27:32;;;;;;;5.55;3.00;;;31.90;74.80;;;;;;1748139;80;21732;-73
2022/12/01 08:30:03;;;;;;;5.25;3.00;;;31.80;75.00;;;;;;1749654;80;21169;-75
2022/12/01 08:32:34;;;;;;;6.90;3.20;;;31.70;75.30;;;;;;1759098;80;21154;-74
2022/12/01 08:35:09;;;;;;;4.90;2.80;;;31.70;75.10;;;;;;1771005;79;21665;-75
2022/12/01 08:37:38;;;;;;;5.22;2.85;;;31.60;74.30;;;;;;1760408;80;21645;-73
2022/12/01 08:40:09;;;;;;;7.05;3.42;;;31.60;74.70;;;;;;1743734;81;21135;-74
2022/12/01 08:42:40;;;;;;;5.45;3.10;;;31.60;74.70;;;;;;1757132;79;21224;-73
2022/12/01 08:45:11;;;;;;;4.90;2.83;;;31.60;74.90;;;;;;1762909;79;21613;-73
2022/12/01 08:47:42;;;;;;;4.53;2.72;;;31.70;74.50;;;;;;1756258;80;21452;-74
2022/12/01 08:50:13;;;;;;;6.50;3.00;;;31.80;74.10;;;;;;1746944;80;21236;-74
2022/12/01 08:52:44;;;;;;;3.52;2.72;;;31.90;73.40;;;;;;1758934;80;21230;-74
2022/12/01 08:55:15;;;;;;;4.85;3.20;;;32.00;74.90;;;;;;1748646;80;21178;-73
2022/12/01 08:57:46;;;;;;;6.55;2.72;;;32.00;73.80;;;;;;1763370;80;21198;-74
2022/12/01 09:00:17;;;;;;;5.12;2.98;;;32.00;72.90;;;;;;1729113;80;21167;-73
2022/12/01 09:02:49;;;;;;;7.42;3.05;;;32.00;73.10;;;;;;1760062;80;21646;-72
2022/12/01 09:05:20;;;;;;;9.38;3.20;;;31.90;73.40;;;;;;1746940;80;21205;-72
2022/12/01 09:08:30;;;;;;;5.58;2.98;;;31.80;73.90;;;;;;1754320;79;21115;-72
2022/12/01 09:10:24;;;;;;;15.30;4.33;;;31.70;73.60;;;;;;1714780;82;21159;-72
2022/12/01 09:12:55;;;;;;;6.28;2.60;;;31.70;74.60;;;;;;1752009;80;21230;-74
2022/12/01 09:15:26;;;;;;;7.65;3.55;;;31.60;74.20;;;;;;1780145;79;21666;-72
2022/12/01 09:17:57;;;;;;;6.90;2.70;;;31.60;74.60;;;;;;1766629;80;21203;-72
2022/12/01 09:20:30;;;;;;;5.20;2.60;;;31.50;74.30;;;;;;1754589;80;21229;-73
2022/12/01 09:23:05;;;;;;;6.42;3.25;;;31.40;73.80;;;;;;1742861;81;21633;-73
2022/12/01 09:25:36;;;;;;;6.65;3.25;;;31.40;75.10;;;;;;1767111;79;21167;-72
2022/12/01 09:28:07;;;;;;;5.80;2.98;;;31.40;74.80;;;;;;1756105;80;21182;-73
2022/12/01 09:30:38;;;;;;;4.35;2.92;;;31.40;75.30;;;;;;1762831;81;21795;-74
2022/12/01 09:33:09;;;;;;;22.32;5.30;;;31.30;75.60;;;;;;1756290;80;21244;-72
2022/12/01 09:35:40;;;;;;;5.08;3.17;;;31.30;75.80;;;;;;1770796;80;21215;-72
2022/12/01 09:38:11;;;;;;;6.83;3.10;;;31.20;75.60;;;;;;1767931;80;21162;-72
2022/12/01 09:40:43;;;;;;;10.13;3.00;;;31.20;75.80;;;;;;1774591;79;21622;-72
2022/12/01 09:43:22;;;;;;;6.30;3.10;;;31.20;76.00;;;;;;1744683;81;21163;-72
2022/12/01 09:45:56;;;;;;;4.47;2.60;;;31.20;76.30;;;;;;1743165;79;21161;-73
2022/12/01 09:48:41;;;;;;;9.53;2.72;;;31.20;75.60;;;;;;1753152;80;21162;-72
2022/12/01 09:51:24;;;;;;;6.15;2.95;;;31.20;75.80;;;;;;1779110;80;21204;-72
2022/12/01 09:53:58;;;;;;;6.28;3.20;;;31.20;75.90;;;;;;1758961;80;21694;-73
2022/12/01 09:56:32;;;;;;;6.90;3.50;;;31.20;75.90;;;;;;1756549;81;21295;-72
2022/12/01 09:59:06;;;;;;;7.72;3.45;;;31.20;76.10;;;;;;1762215;79;21646;-73
2022/12/01 10:01:40;;;;;;;8.13;3.95;;;31.20;76.20;;;;;;1768827;80;21174;-72
2022/12/01 10:04:20;;;;;;;7.85;4.08;;;31.20;76.20;;;;;;1781984;80;21198;-73
2022/12/01 10:07:02;;;;;;;6.50;2.70;;;31.20;76.70;;;;;;1742526;80;21160;-73
2022/12/01 10:09:54;;;;;;;6.42;3.70;;;31.10;77.10;;;;;;1728390;81;21243;-71
2022/12/01 10:12:28;;;;;;;4.87;3.12;;;31.10;77.60;;;;;;1763384;81;21197;-72
2022/12/01 10:15:25;;;;;;;5.90;3.62;;;31.10;78.10;;;;;;1759355;80;21129;-71
2022/12/01 10:18:36;;;;;;;5.83;3.30;;;31.10;78.20;;;;;;1757647;79;21206;-72
2022/12/01 10:21:12;;;;;;;6.70;4.58;;;31.10;78.10;;;;;;1782882;80;21614;-73
2022/12/01 10:23:50;;;;;;;7.58;4.80;;;31.10;77.90;;;;;;1780474;79;21214;-73
2022/12/01 10:29:49;;;;;;;10.45;4.90;;;31.10;77.80;;;;;;1812827;77;21645;-72
2022/12/01 10:32:23;;;;;;;9.90;5.30;;;31.10;78.00;;;;;;1833567;77;21245;-72
2022/12/01 10:35:00;;;;;;;7.17;5.10;;;31.00;78.10;;;;;;1810500;79;21235;-74
2022/12/01 10:37:32;;;;;;;10.50;4.35;;;30.90;78.20;;;;;;1826393;77;21228;-72
2022/12/01 10:40:03;;;;;;;6.37;4.00;;;31.00;78.90;;;;;;1818441;77;21185;-74
2022/12/01 10:42:49;;;;;;;9.45;4.45;;;30.90;79.30;;;;;;1817740;77;21150;-72
2022/12/01 10:45:22;;;;;;;7.70;4.60;;;30.90;79.60;;;;;;1795796;80;21108;-72
2022/12/01 10:48:11;;;;;;;8.70;4.53;;;30.80;80.00;;;;;;1810378;78;21185;-72
2022/12/01 10:50:51;;;;;;;9.25;4.62;;;30.80;80.30;;;;;;1814876;77;21090;-73
2022/12/01 10:53:34;;;;;;;10.95;4.70;;;30.80;80.60;;;;;;1802422;77;21091;-70
2022/12/01 10:56:12;;;;;;;9.30;5.08;;;30.70;80.70;;;;;;1805878;78;21166;-72
2022/12/01 10:58:54;;;;;;;9.23;4.90;;;30.70;81.00;;;;;;1764055;80;21124;-72
2022/12/01 11:01:30;;;;;;;10.13;5.17;;;30.70;81.30;;;;;;1810195;78;21202;-72
2022/12/01 11:04:24;;;;;;;9.88;6.25;;;30.60;81.10;;;;;;1841989;77;21099;-72
2022/12/01 11:06:57;;;;;;;13.53;7.47;;;30.60;81.10;;;;;;1797778;78;21705;-73
2022/12/01 11:09:30;;;;;;;10.28;6.53;;;30.60;81.40;;;;;;1788806;78;21640;-73
2022/12/01 11:12:03;;;;;;;15.48;7.03;;;30.50;81.30;;;;;;1782727;78;21199;-73
2022/12/01 11:14:51;;;;;;;10.82;6.15;;;30.50;81.20;;;;;;1788892;78;21273;-74
2022/12/01 11:17:30;;;;;;;10.25;6.70;;;30.50;81.20;;;;;;1791451;79;21259;-72
2022/12/01 11:20:20;;;;;;;12.85;7.75;;;30.40;81.10;;;;;;1842597;77;21142;-73
2022/12/01 11:22:55;;;;;;;12.70;7.70;;;30.40;81.10;;;;;;1803256;79;21188;-72
2022/12/01 11:25:27;;;;;;;11.88;8.13;;;30.40;81.30;;;;;;1805664;79;21880;-73
2022/12/01 11:28:00;;;;;;;15.25;8.78;;;30.30;81.30;;;;;;1758173;80;21666;-73
2022/12/01 11:30:33;;;;;;;14.93;9.70;;;30.30;81.30;;;;;;1781332;79;21665;-71
2022/12/01 11:33:05;;;;;;;13.60;9.60;;;30.30;81.60;;;;;;1808961;78;21150;-72
2022/12/01 11:35:40;;;;;;;16.15;9.88;;;30.30;81.60;;;;;;1819931;77;21165;-72
2022/12/01 11:38:13;;;;;;;17.15;10.63;;;30.20;81.60;;;;;;1807063;78;21231;-72
2022/12/01 11:40:48;;;;;;;14.75;10.08;;;30.20;81.90;;;;;;1811130;77;21126;-72
2022/12/01 11:43:31;;;;;;;15.93;10.85;;;30.20;81.90;;;;;;1808410;78;21184;-69
2022/12/01 11:46:04;;;;;;;15.50;10.20;;;30.10;81.90;;;;;;1811244;78;21303;-73
2022/12/01 11:48:36;;;;;;;17.02;9.20;;;30.10;82.10;;;;;;1809706;78;21233;-74
2022/12/01 11:51:21;;;;;;;15.13;8.85;;;30.10;82.10;;;;;;1810726;77;21118;-73
2022/12/01 11:54:17;;;;;;;15.10;8.00;;;30.10;82.30;;;;;;1817434;77;21116;-77
2022/12/01 11:56:50;;;;;;;12.10;6.92;;;30.00;82.50;;;;;;1789482;78;21499;-82
2022/12/01 11:59:26;;;;;;;12.55;7.25;;;30.00;82.50;;;;;;1799995;79;21655;-84
2022/12/01 12:02:22;;;;;;;12.50;6.75;;;30.00;82.50;;;;;;1727647;82;21099;-84
2022/12/01 12:04:59;;;;;;;16.55;7.50;;;29.90;82.70;;;;;;1765026;80;21188;-84
2022/12/01 12:07:39;;;;;;;12.37;6.65;;;29.90;82.70;;;;;;1758937;81;21164;-85
2022/12/01 12:10:14;;;;;;;;;;;29.90;82.90;;;;;;1778698;78;21074;-85
2022/12/01 12:13:16;;;;;;;8.70;5.72;;;29.90;82.70;;;;;;1809733;78;20193;-85
2022/12/01 12:16:10;;;;;;;10.68;6.00;;;29.90;83.10;;;;;;1821469;77;21728;-82
2022/12/01 12:18:51;;;;;;;13.78;6.20;;;29.80;83.10;;;;;;1823997;77;21193;-84
2022/12/01 12:21:34;;;;;;;11.30;6.62;;;29.80;83.30;;;;;;1802695;77;21200;-85
2022/12/01 12:24:10;;;;;;;9.38;5.95;;;29.80;83.40;;;;;;1827237;77;21597;-82
2022/12/01 12:26:45;;;;;;;11.53;6.33;;;29.80;83.60;;;;;;1800889;77;21146;-86
2022/12/01 12:29:31;;;;;;;11.57;6.20;;;29.80;83.80;;;;;;1809219;77;21641;-86
2022/12/01 12:32:06;;;;;;;11.88;5.75;;;29.70;83.80;;;;;;1804560;79;21188;-84
2022/12/01 12:34:50;;;;;;;11.28;5.80;;;29.70;84.00;;;;;;1828694;77;21147;-84
2022/12/01 12:37:24;;;;;;;12.82;5.47;;;29.70;84.10;;;;;;1795233;79;21236;-83
2022/12/01 12:40:18;;;;;;;10.23;5.30;;;29.70;84.20;;;;;;1800369;78;21236;-84
2022/12/01 12:43:02;;;;;;;12.95;6.22;;;29.60;84.30;;;;;;1796527;78;21251;-84
2022/12/01 12:45:56;;;;;;;15.15;5.85;;;29.60;84.50;;;;;;1801926;78;21192;-84
2022/12/01 12:48:41;;;;;;;11.15;5.65;;;29.60;84.70;;;;;;1760188;80;21676;-84
2022/12/01 12:51:19;;;;;;;11.08;5.90;;;29.60;84.70;;;;;;1797527;78;21230;-83
2022/12/01 12:54:26;;;;;;;10.05;5.47;;;29.60;84.90;;;;;;1815744;77;21642;-85
2022/12/01 12:57:02;;;;;;;10.85;5.75;;;29.50;84.90;;;;;;1807640;77;21193;-84
2022/12/01 12:59:41;;;;;;;11.28;5.75;;;29.60;85.10;;;;;;1781434;77;21178;-84
2022/12/01 13:02:14;;;;;;;12.15;6.08;;;29.50;85.10;;;;;;1813635;76;21153;-85
2022/12/01 13:04:56;;;;;;;12.47;5.67;;;29.50;85.30;;;;;;1817282;78;21137;-84
2022/12/01 13:07:36;;;;;;;14.85;6.05;;;29.50;85.50;;;;;;1811784;77;21203;-84
2022/12/01 13:10:21;;;;;;;9.93;5.78;;;29.50;85.60;;;;;;1805721;77;21083;-86
2022/12/01 13:13:01;;;;;;;17.12;6.50;;;29.50;85.70;;;;;;1825236;76;21162;-88
2022/12/01 13:15:35;;;;;;;17.60;6.00;;;29.40;85.90;;;;;;1814655;77;21602;-87
2022/12/01 13:18:15;;;;;;;9.05;5.25;;;29.40;86.40;;;;;;1811435;77;21187;-85
2022/12/01 13:21:00;;;;;;;10.20;6.17;;;29.40;86.50;;;;;;1784012;79;21182;-86
2022/12/01 13:23:24;;;;;;;13.43;6.53;;;29.40;86.40;;;;;;1785992;78;21096;-86
2022/12/01 13:25:57;;;;;;;13.35;6.62;;;29.50;86.70;;;;;;1777528;80;21179;-86
2022/12/01 13:28:43;;;;;;;12.55;6.50;;;29.50;86.80;;;;;;1782301;78;21223;-85
2022/12/01 13:31:17;;;;;;;17.57;6.92;;;29.50;87.10;;;;;;1801724;78;21111;-85
2022/12/01 13:34:05;;;;;;;14.07;6.65;;;29.40;87.00;;;;;;1791199;78;21847;-86
2022/12/01 13:36:40;;;;;;;14.47;7.15;;;29.40;87.20;;;;;;1799388;77;21232;-86